createdAt,value
2023-02-11T01:02:03.742Z,101262.81
2023-02-11T01:02:35.980Z,101261.00
2023-02-11T01:03:08.881Z,101264.13
2023-02-11T01:03:43.905Z,101271.56
2023-02-11T01:04:16.326Z,101268.59
2023-02-11T01:04:48.576Z,101256.84
2023-02-11T01:05:24.303Z,101257.34
2023-02-11T01:05:56.562Z,101258.66
2023-02-11T01:06:28.648Z,101254.84
2023-02-11T01:07:03.314Z,101254.34
2023-02-11T01:07:35.876Z,101257.47
2023-02-11T01:08:08.083Z,101257.16
2023-02-11T01:08:42.929Z,101258.47
2023-02-11T01:09:15.146Z,101257.13
2023-02-11T01:09:47.266Z,101258.78
2023-02-11T01:10:22.019Z,101254.13
2023-02-11T01:10:55.833Z,101255.63
2023-02-11T01:11:27.923Z,101258.75
2023-02-11T01:12:05.537Z,101254.28
2023-02-11T01:12:37.909Z,101253.94
2023-02-11T01:13:10.236Z,101256.44
2023-02-11T01:13:45.618Z,101260.41
2023-02-11T01:14:17.770Z,101256.75
2023-02-11T01:14:50.021Z,101258.22
2023-02-11T01:15:27.592Z,101260.53
2023-02-11T01:16:00.838Z,101269.16
2023-02-11T01:16:33.074Z,101276.75
2023-02-11T01:17:10.463Z,101275.59
2023-02-11T01:17:42.586Z,101269.31
2023-02-11T01:18:14.673Z,101266.31
2023-02-11T01:18:49.753Z,101268.97
2023-02-11T01:19:22.990Z,101272.44
2023-02-11T01:19:57.788Z,101265.31
2023-02-11T01:20:29.927Z,101271.59
2023-02-11T01:21:02.221Z,101269.78
2023-02-11T01:21:34.302Z,101267.97
2023-02-11T01:22:08.992Z,101269.44
2023-02-11T01:22:41.137Z,101268.59
2023-02-11T01:23:13.522Z,101267.63
2023-02-11T01:23:48.449Z,101269.28
2023-02-11T01:24:20.545Z,101269.09
2023-02-11T01:24:52.681Z,101272.41
2023-02-11T01:25:24.817Z,101273.88
2023-02-11T01:26:00.132Z,101264.94
2023-02-11T01:26:34.244Z,101271.06
2023-02-11T01:27:06.403Z,101265.75
2023-02-11T01:27:41.847Z,101261.28
2023-02-11T01:28:17.680Z,101273.53
2023-02-11T01:28:49.833Z,101264.09
2023-02-11T01:29:24.917Z,101267.56
2023-02-11T01:29:59.895Z,101260.81
2023-02-11T01:30:32.269Z,101265.09
2023-02-11T01:31:07.615Z,101260.63
2023-02-11T01:31:39.745Z,101260.47
2023-02-11T01:32:14.492Z,101262.13
2023-02-11T01:32:49.199Z,101268.88
2023-02-11T01:33:22.246Z,101266.44
2023-02-11T01:33:56.890Z,101269.25
2023-02-11T01:34:29.147Z,101259.47
2023-02-11T01:35:01.428Z,101264.56
2023-02-11T01:35:33.547Z,101264.41
2023-02-11T01:36:09.704Z,101266.91
2023-02-11T01:36:42.233Z,101270.53
2023-02-11T01:37:16.889Z,101269.72
2023-02-11T01:37:49.005Z,101268.72
2023-02-11T01:38:24.039Z,101273.19
2023-02-11T01:39:00.680Z,101264.25
2023-02-11T01:39:34.004Z,101273.34
2023-02-11T01:40:09.043Z,101272.53
2023-02-11T01:40:43.709Z,101278.84
2023-02-11T01:41:16.615Z,101271.88
2023-02-11T01:41:49.225Z,101277.81
2023-02-11T01:42:26.590Z,101275.19
2023-02-11T01:42:58.713Z,101270.06
2023-02-11T01:43:36.018Z,101262.13
2023-02-11T01:44:33.150Z,101269.25
2023-02-11T01:45:35.162Z,101265.09
2023-02-11T01:46:35.965Z,101264.59
2023-02-11T01:47:07.890Z,101264.13
2023-02-11T01:47:44.827Z,101263.16
2023-02-11T01:48:21.345Z,101265.28
2023-02-11T01:48:58.850Z,101257.34
2023-02-11T01:49:33.056Z,101260.81
2023-02-11T01:50:05.569Z,101258.16
2023-02-11T01:50:40.325Z,101263.28
2023-02-11T01:51:19.703Z,101255.31
2023-02-11T01:51:56.886Z,101258.78
2023-02-11T01:52:33.020Z,101251.84
2023-02-11T01:53:20.045Z,101258.78
2023-02-11T01:54:08.460Z,101254.50
2023-02-11T01:54:59.422Z,101251.19
2023-02-11T01:55:58.608Z,101251.56
2023-02-11T01:56:46.650Z,101248.91
2023-02-11T01:57:27.554Z,101254.00
2023-02-11T01:58:04.448Z,101249.53
2023-02-11T01:58:41.782Z,101257.50
2023-02-11T01:59:21.248Z,101262.63
2023-02-11T02:00:01.729Z,101255.66
2023-02-11T02:00:49.352Z,101260.16
2023-02-11T02:01:27.031Z,101254.69
2023-02-11T02:02:04.811Z,101251.38
2023-02-11T02:02:47.003Z,101252.19
2023-02-11T02:03:22.783Z,101246.72
2023-02-11T02:04:00.540Z,101259.63
2023-02-11T02:04:42.940Z,101249.69
2023-02-11T02:05:22.484Z,101250.69
2023-02-11T02:06:00.075Z,101248.38
2023-02-11T02:06:41.126Z,101246.72
2023-02-11T02:07:20.357Z,101251.84
2023-02-11T02:08:03.066Z,101249.03
2023-02-11T02:08:39.276Z,101250.03
2023-02-11T02:09:17.825Z,101248.19
2023-02-11T02:09:58.868Z,101245.56
2023-02-11T02:10:32.031Z,101244.72
2023-02-11T02:11:05.158Z,101244.56
2023-02-11T02:11:40.540Z,101241.75
2023-02-11T02:12:12.693Z,101244.41
2023-02-11T02:12:45.040Z,101249.50
2023-02-11T02:13:20.510Z,101242.38
2023-02-11T02:13:53.045Z,101233.28
2023-02-11T02:14:26.742Z,101250.00
2023-02-11T02:15:37.261Z,101253.81
2023-02-11T02:16:13.964Z,101244.56
2023-02-11T02:16:46.517Z,101248.88
2023-02-11T02:17:41.247Z,101245.22
2023-02-11T02:18:27.521Z,101245.75
2023-02-11T02:19:36.144Z,101233.66
2023-02-11T02:20:31.684Z,101244.41
2023-02-11T02:21:50.067Z,101238.13
2023-02-11T02:22:53.695Z,101243.59
2023-02-11T02:23:36.636Z,101245.44
2023-02-11T02:24:51.338Z,101240.28
2023-02-11T02:25:51.337Z,101233.53
2023-02-11T02:26:42.673Z,101234.50
2023-02-11T02:27:41.809Z,101241.78
2023-02-11T02:28:36.780Z,101237.50
2023-02-11T02:29:43.493Z,101234.88
2023-02-11T02:30:44.723Z,101229.06
2023-02-11T02:31:52.819Z,101230.72
2023-02-11T02:32:43.705Z,101229.88
2023-02-11T02:33:29.895Z,101231.53
2023-02-11T02:34:09.383Z,101243.59
2023-02-11T02:34:49.372Z,101243.44
2023-02-11T02:35:33.581Z,101234.50
2023-02-11T02:36:18.750Z,101235.34
2023-02-11T02:36:59.397Z,101227.56
2023-02-11T02:37:37.187Z,101233.53
2023-02-11T02:38:19.221Z,101232.50
2023-02-11T02:38:56.636Z,101230.69
2023-02-11T02:39:36.966Z,101231.34
2023-02-11T02:40:20.513Z,101225.22
2023-02-11T02:40:59.258Z,101226.88
2023-02-11T02:41:33.824Z,101228.50
2023-02-11T02:42:08.815Z,101225.69
2023-02-11T02:42:44.640Z,101223.72
2023-02-11T02:43:28.676Z,101228.00
2023-02-11T02:44:01.257Z,101221.38
2023-02-11T02:44:34.087Z,101231.00
2023-02-11T02:45:12.039Z,101224.03
2023-02-11T02:45:44.172Z,101230.16
2023-02-11T02:46:18.837Z,101229.16
2023-02-11T02:46:53.807Z,101224.53
2023-02-11T02:47:26.020Z,101225.19
2023-02-11T02:48:00.862Z,101225.19
2023-02-11T02:48:36.569Z,101228.66
2023-02-11T02:49:13.955Z,101227.81
2023-02-11T02:49:46.119Z,101223.53
2023-02-11T02:50:30.338Z,101228.19
2023-02-11T02:51:14.856Z,101221.56
2023-02-11T02:52:06.600Z,101227.19
2023-02-11T02:52:46.990Z,101225.72
2023-02-11T02:53:25.470Z,101234.19
2023-02-11T02:54:10.718Z,101229.72
2023-02-11T02:55:20.688Z,101230.72
2023-02-11T02:56:06.965Z,101227.25
2023-02-11T02:56:48.347Z,101230.88
2023-02-11T02:57:31.018Z,101231.91
2023-02-11T02:58:44.304Z,101228.22
2023-02-11T02:59:34.079Z,101231.06
2023-02-11T03:00:20.661Z,101226.59
2023-02-11T03:00:59.466Z,101231.72
2023-02-11T03:01:42.533Z,101231.38
2023-02-11T03:02:27.648Z,101238.16
2023-02-11T03:03:15.931Z,101227.38
2023-02-11T03:03:57.496Z,101223.09
2023-02-11T03:04:37.535Z,101232.50
2023-02-11T03:05:16.409Z,101232.34
2023-02-11T03:05:56.588Z,101230.53
2023-02-11T03:06:34.436Z,101229.06
2023-02-11T03:07:15.533Z,101234.34
2023-02-11T03:07:58.846Z,101232.69
2023-02-11T03:08:34.851Z,101227.19
2023-02-11T03:09:13.846Z,101229.69
2023-02-11T03:09:51.512Z,101228.69
2023-02-11T03:10:29.054Z,101233.66
2023-02-11T03:11:06.145Z,101229.16
2023-02-11T03:11:39.064Z,101229.84
2023-02-11T03:12:13.565Z,101228.66
2023-02-11T03:12:47.860Z,101221.53
2023-02-11T03:13:27.864Z,101226.84
2023-02-11T03:14:03.660Z,101219.72
2023-02-11T03:14:36.370Z,101227.47
2023-02-11T03:15:14.043Z,101225.66
2023-02-11T03:15:49.197Z,101220.34
2023-02-11T03:16:25.734Z,101221.03
2023-02-11T03:17:02.866Z,101226.97
2023-02-11T03:17:37.229Z,101218.38
2023-02-11T03:18:15.868Z,101221.03
2023-02-11T03:18:53.556Z,101219.34
2023-02-11T03:19:33.511Z,101227.47
2023-02-11T03:20:07.561Z,101225.84
2023-02-11T03:20:45.127Z,101223.19
2023-02-11T03:21:18.640Z,101216.88
2023-02-11T03:21:53.701Z,101223.19
2023-02-11T03:22:33.401Z,101220.72
2023-02-11T03:23:12.917Z,101225.84
2023-02-11T03:23:50.246Z,101217.59
2023-02-11T03:24:31.100Z,101216.59
2023-02-11T03:25:03.898Z,101213.28
2023-02-11T03:25:53.347Z,101211.47
2023-02-11T03:26:30.497Z,101211.63
2023-02-11T03:27:13.550Z,101214.94
2023-02-11T03:27:49.822Z,101204.34
2023-02-11T03:28:30.088Z,101206.78
2023-02-11T03:29:12.491Z,101209.44
2023-02-11T03:29:51.747Z,101210.28
2023-02-11T03:30:31.354Z,101204.81
2023-02-11T03:31:12.488Z,101205.63
2023-02-11T03:31:53.255Z,101209.94
2023-02-11T03:32:31.781Z,101207.94
2023-02-11T03:33:09.235Z,101204.28
2023-02-11T03:33:55.965Z,101204.44
2023-02-11T03:34:36.149Z,101202.97
2023-02-11T03:35:17.681Z,101208.44
2023-02-11T03:35:57.069Z,101206.63
2023-02-11T03:36:38.576Z,101201.31
2023-02-11T03:37:15.597Z,101203.97
2023-02-11T03:37:52.097Z,101200.69
2023-02-11T03:38:32.581Z,101202.50
2023-02-11T03:39:05.592Z,101200.38
2023-02-11T03:39:41.265Z,101200.38
2023-02-11T03:40:20.034Z,101198.38
2023-02-11T03:40:55.519Z,101209.63
2023-02-11T03:41:28.765Z,101196.38
2023-02-11T03:42:03.035Z,101201.69
2023-02-11T03:42:42.506Z,101193.91
2023-02-11T03:43:18.940Z,101196.72
2023-02-11T03:43:55.524Z,101200.19
2023-02-11T03:44:35.991Z,101194.88
2023-02-11T03:45:09.485Z,101185.63
2023-02-11T03:45:41.712Z,101186.47
2023-02-11T03:46:21.058Z,101182.81
2023-02-11T03:46:54.744Z,101184.47
2023-02-11T03:47:30.249Z,101178.16
2023-02-11T03:48:08.921Z,101178.00
2023-02-11T03:48:49.547Z,101184.13
2023-02-11T03:49:27.810Z,101181.31
2023-02-11T03:50:02.986Z,101179.31
2023-02-11T03:50:37.503Z,101167.88
2023-02-11T03:51:15.089Z,101172.19
2023-02-11T03:51:49.744Z,101172.19
2023-02-11T03:52:24.634Z,101178.16
2023-02-11T03:53:02.939Z,101179.78
2023-02-11T03:53:36.713Z,101186.72
2023-02-11T03:54:16.872Z,101179.44
2023-02-11T03:54:57.228Z,101178.44
2023-02-11T03:55:30.193Z,101176.13
2023-02-11T03:56:10.553Z,101170.81
2023-02-11T03:56:46.084Z,101176.47
2023-02-11T03:57:18.169Z,101175.66
2023-02-11T03:57:52.829Z,101177.13
2023-02-11T03:58:25.162Z,101174.16
2023-02-11T03:58:57.571Z,101172.94
2023-02-11T03:59:32.446Z,101171.97
2023-02-11T04:00:05.897Z,101170.97
2023-02-11T04:00:44.889Z,101170.97
2023-02-11T04:01:19.707Z,101172.63
2023-02-11T04:01:52.237Z,101162.81
2023-02-11T04:02:28.063Z,101167.78
2023-02-11T04:03:02.824Z,101165.97
2023-02-11T04:03:35.044Z,101165.78
2023-02-11T04:04:10.079Z,101171.75
2023-02-11T04:04:47.405Z,101162.97
2023-02-11T04:05:19.735Z,101171.75
2023-02-11T04:05:54.460Z,101165.44
2023-02-11T04:06:26.569Z,101162.81
2023-02-11T04:06:58.788Z,101172.38
2023-02-11T04:07:33.743Z,101167.91
2023-02-11T04:08:06.673Z,101165.44
2023-02-11T04:08:38.852Z,101161.78
2023-02-11T04:09:13.938Z,101171.38
2023-02-11T04:09:46.211Z,101168.72
2023-02-11T04:10:21.434Z,101169.56
2023-02-11T04:10:53.556Z,101164.91
2023-02-11T04:11:25.845Z,101165.72
2023-02-11T04:11:57.945Z,101164.72
2023-02-11T04:12:32.700Z,101168.22
2023-02-11T04:13:04.785Z,101167.38
2023-02-11T04:13:36.851Z,101162.06
2023-02-11T04:14:11.489Z,101157.59
2023-02-11T04:14:43.560Z,101165.56
2023-02-11T04:15:15.801Z,101161.09
2023-02-11T04:15:50.828Z,101155.94
2023-02-11T04:16:23.123Z,101166.56
2023-02-11T04:16:55.367Z,101160.25
2023-02-11T04:17:30.057Z,101162.91
2023-02-11T04:18:04.632Z,101155.94
2023-02-11T04:18:36.725Z,101157.75
2023-02-11T04:19:13.943Z,101163.25
2023-02-11T04:19:46.024Z,101158.13
2023-02-11T04:20:18.387Z,101156.31
2023-02-11T04:20:53.640Z,101160.16
2023-02-11T04:21:25.850Z,101157.66
2023-02-11T04:21:58.094Z,101162.97
2023-02-11T04:22:32.816Z,101157.50
2023-02-11T04:23:05.151Z,101163.78
2023-02-11T04:23:37.420Z,101163.78
2023-02-11T04:24:12.333Z,101156.84
2023-02-11T04:24:46.973Z,101157.19
2023-02-11T04:25:19.294Z,101160.00
2023-02-11T04:25:51.843Z,101158.34
2023-02-11T04:26:26.838Z,101152.06
2023-02-11T04:26:59.056Z,101152.06
2023-02-11T04:27:31.465Z,101152.22
2023-02-11T04:28:03.646Z,101161.00
2023-02-11T04:28:38.420Z,101155.53
2023-02-11T04:29:10.673Z,101148.78
2023-02-11T04:29:42.828Z,101152.22
2023-02-11T04:30:17.493Z,101149.56
2023-02-11T04:30:50.678Z,101152.22
2023-02-11T04:31:23.031Z,101153.88
2023-02-11T04:31:58.107Z,101156.53
2023-02-11T04:32:30.290Z,101155.69
2023-02-11T04:33:02.566Z,101162.81
2023-02-11T04:33:37.211Z,101153.25
2023-02-11T04:34:14.792Z,101150.59
2023-02-11T04:34:47.731Z,101144.63
2023-02-11T04:35:22.407Z,101147.28
2023-02-11T04:35:54.857Z,101144.63
2023-02-11T04:36:29.590Z,101150.75
2023-02-11T04:37:02.170Z,101145.28
2023-02-11T04:37:41.572Z,101140.81
2023-02-11T04:38:19.515Z,101141.97
2023-02-11T04:38:51.618Z,101144.00
2023-02-11T04:39:23.739Z,101141.97
2023-02-11T04:39:55.881Z,101136.69
2023-02-11T04:40:30.606Z,101138.34
2023-02-11T04:41:02.741Z,101141.63
2023-02-11T04:41:34.868Z,101141.63
2023-02-11T04:42:12.306Z,101136.31
2023-02-11T04:42:44.456Z,101137.34
2023-02-11T04:43:16.585Z,101136.31
2023-02-11T04:43:51.239Z,101132.88
2023-02-11T04:44:23.370Z,101129.41
2023-02-11T04:44:55.584Z,101120.41
2023-02-11T04:45:30.259Z,101125.56
2023-02-11T04:46:02.411Z,101120.41
2023-02-11T04:46:36.143Z,101122.06
2023-02-11T04:47:12.784Z,101129.03
2023-02-11T04:47:44.931Z,101121.91
2023-02-11T04:48:17.000Z,101123.72
2023-02-11T04:48:51.902Z,101116.59
2023-02-11T04:49:26.661Z,101118.44
2023-02-11T04:49:58.775Z,101124.72
2023-02-11T04:50:33.979Z,101118.44
2023-02-11T04:51:06.555Z,101121.25
2023-02-11T04:51:38.765Z,101124.91
2023-02-11T04:52:16.242Z,101120.41
2023-02-11T04:52:48.386Z,101127.75
2023-02-11T04:53:20.478Z,101120.63
2023-02-11T04:53:55.179Z,101124.09
2023-02-11T04:54:27.476Z,101124.91
2023-02-11T04:54:59.650Z,101122.06
2023-02-11T04:55:34.320Z,101115.94
2023-02-11T04:56:07.104Z,101115.13
2023-02-11T04:56:39.493Z,101119.41
2023-02-11T04:57:14.280Z,101116.78
2023-02-11T04:57:46.365Z,101117.75
2023-02-11T04:58:19.194Z,101117.75
2023-02-11T04:58:53.832Z,101109.03
2023-02-11T04:59:25.956Z,101105.53
2023-02-11T04:59:58.093Z,101113.50
2023-02-11T05:00:32.867Z,101109.81
2023-02-11T05:01:08.710Z,101111.66
2023-02-11T05:01:41.405Z,101106.38
2023-02-11T05:02:16.376Z,101106.38
2023-02-11T05:02:48.683Z,101112.66
2023-02-11T05:03:20.844Z,101108.19
2023-02-11T05:03:55.520Z,101109.81
2023-02-11T05:04:30.719Z,101107.38
2023-02-11T05:05:03.107Z,101110.84
2023-02-11T05:05:40.718Z,101110.84
2023-02-11T05:06:13.438Z,101109.19
2023-02-11T05:06:45.513Z,101106.53
2023-02-11T05:07:20.260Z,101111.66
2023-02-11T05:07:52.389Z,101113.50
2023-02-11T05:08:24.569Z,101107.38
2023-02-11T05:08:59.326Z,101105.69
2023-02-11T05:09:31.560Z,101109.34
2023-02-11T05:10:04.537Z,101102.22
2023-02-11T05:10:42.834Z,101121.59
2023-02-11T05:11:17.244Z,101115.00
2023-02-11T05:11:50.038Z,101107.88
2023-02-11T05:12:24.791Z,101112.53
2023-02-11T05:12:56.875Z,101110.88
2023-02-11T05:13:29.210Z,101116.16
2023-02-11T05:14:03.946Z,101118.19
2023-02-11T05:14:36.099Z,101112.06
2023-02-11T05:15:08.573Z,101116.53
2023-02-11T05:15:40.955Z,101113.88
2023-02-11T05:16:16.068Z,101117.34
2023-02-11T05:16:48.587Z,101114.88
2023-02-11T05:17:20.711Z,101115.06
2023-02-11T05:17:55.682Z,101109.94
2023-02-11T05:18:27.883Z,101110.94
2023-02-11T05:19:02.168Z,101109.47
2023-02-11T05:19:39.609Z,101118.41
2023-02-11T05:20:11.956Z,101113.47
2023-02-11T05:20:44.322Z,101121.41
2023-02-11T05:21:21.748Z,101119.59
2023-02-11T05:22:02.559Z,101120.75
2023-02-11T05:22:37.262Z,101123.59
2023-02-11T05:23:12.221Z,101120.13
2023-02-11T05:23:45.476Z,101123.59
2023-02-11T05:24:17.564Z,101116.63
2023-02-11T05:24:53.673Z,101120.28
2023-02-11T05:25:25.861Z,101119.59
2023-02-11T05:25:59.902Z,101116.31
2023-02-11T05:26:35.063Z,101118.97
2023-02-11T05:27:07.315Z,101113.84
2023-02-11T05:27:39.462Z,101115.84
2023-02-11T05:28:14.282Z,101113.38
2023-02-11T05:28:46.460Z,101111.56
2023-02-11T05:29:20.968Z,101104.59
2023-02-11T05:29:55.793Z,101118.00
2023-02-11T05:30:28.334Z,101103.13
2023-02-11T05:31:00.699Z,101107.59
2023-02-11T05:31:35.539Z,101105.78
2023-02-11T05:32:09.127Z,101106.63
2023-02-11T05:32:41.211Z,101100.47
2023-02-11T05:33:16.030Z,101109.06
2023-02-11T05:33:48.235Z,101103.75
2023-02-11T05:34:20.384Z,101105.44
2023-02-11T05:34:57.676Z,101111.38
2023-02-11T05:35:29.745Z,101107.09
2023-02-11T05:36:04.195Z,101096.28
2023-02-11T05:36:39.137Z,101098.78
2023-02-11T05:37:11.395Z,101101.44
2023-02-11T05:37:43.778Z,101110.03
2023-02-11T05:38:18.596Z,101103.72
2023-02-11T05:38:51.076Z,101102.09
2023-02-11T05:39:23.268Z,101101.56
2023-02-11T05:39:55.367Z,101110.66
2023-02-11T05:40:30.109Z,101105.56
2023-02-11T05:41:03.048Z,101111.66
2023-02-11T05:41:35.184Z,101111.34
2023-02-11T05:42:10.056Z,101106.66
2023-02-11T05:42:42.178Z,101104.03
2023-02-11T05:43:14.247Z,101102.88
2023-02-11T05:43:51.098Z,101106.16
2023-02-11T05:44:23.189Z,101100.03
2023-02-11T05:44:55.399Z,101105.97
2023-02-11T05:45:30.377Z,101100.84
2023-02-11T05:46:03.354Z,101104.31
2023-02-11T05:46:37.976Z,101099.03
2023-02-11T05:47:12.659Z,101102.66
2023-02-11T05:47:44.870Z,101099.84
2023-02-11T05:48:17.889Z,101098.03
2023-02-11T05:48:52.884Z,101095.38
2023-02-11T05:49:25.100Z,101094.38
2023-02-11T05:49:59.844Z,101092.56
2023-02-11T05:50:34.621Z,101085.41
2023-02-11T05:51:06.732Z,101090.56
2023-02-11T05:51:38.899Z,101088.72
2023-02-11T05:52:13.549Z,101082.25
2023-02-11T05:52:45.637Z,101089.03
2023-02-11T05:53:18.127Z,101084.38
2023-02-11T05:53:53.090Z,101082.38
2023-02-11T05:54:28.181Z,101088.50
2023-02-11T05:55:00.340Z,101084.88
2023-02-11T05:55:35.029Z,101089.13
2023-02-11T05:56:07.625Z,101085.69
2023-02-11T05:56:39.740Z,101090.78
2023-02-11T05:57:14.433Z,101089.97
2023-02-11T05:57:46.920Z,101082.84
2023-02-11T05:58:19.071Z,101076.53
2023-02-11T05:58:53.876Z,101074.72
2023-02-11T05:59:26.400Z,101076.38
2023-02-11T05:59:58.482Z,101077.38
2023-02-11T06:00:33.344Z,101073.72
2023-02-11T06:01:05.560Z,101077.38
2023-02-11T06:01:37.785Z,101074.72
2023-02-11T06:02:13.333Z,101073.72
2023-02-11T06:02:45.496Z,101076.38
2023-02-11T06:03:17.657Z,101072.72
2023-02-11T06:03:54.120Z,101071.72
2023-02-11T06:04:27.200Z,101076.38
2023-02-11T06:05:01.953Z,101069.06
2023-02-11T06:05:36.778Z,101062.94
2023-02-11T06:06:10.563Z,101062.09
2023-02-11T06:06:45.581Z,101065.78
2023-02-11T06:07:20.324Z,101058.00
2023-02-11T06:07:52.574Z,101065.78
2023-02-11T06:08:24.766Z,101056.81
2023-02-11T06:08:56.961Z,101059.44
2023-02-11T06:09:31.609Z,101061.13
2023-02-11T06:10:04.426Z,101061.94
2023-02-11T06:10:37.523Z,101054.81
2023-02-11T06:11:12.357Z,101052.00
2023-02-11T06:11:47.227Z,101056.28
2023-02-11T06:12:22.176Z,101049.81
2023-02-11T06:12:56.903Z,101055.75
2023-02-11T06:13:28.979Z,101056.56
2023-02-11T06:14:04.992Z,101058.22
2023-02-11T06:14:39.978Z,101058.38
2023-02-11T06:15:12.235Z,101055.75
2023-02-11T06:15:44.565Z,101063.53
2023-02-11T06:16:19.386Z,101059.88
2023-02-11T06:16:56.206Z,101057.22
2023-02-11T06:17:31.758Z,101056.88
2023-02-11T06:18:07.105Z,101049.72
2023-02-11T07:05:28.885Z,100981.44
2023-02-11T07:06:01.180Z,100988.41
2023-02-11T07:06:33.330Z,100978.44
2023-02-11T07:07:11.026Z,100989.69
2023-02-11T07:07:43.201Z,100987.69
2023-02-11T07:08:20.395Z,100985.69
2023-02-11T07:08:56.020Z,100993.28
2023-02-11T07:09:31.364Z,100992.28
2023-02-11T07:10:06.806Z,100997.41
2023-02-11T07:10:39.061Z,100999.03
2023-02-11T07:11:13.045Z,100996.22
2023-02-11T07:11:47.906Z,100994.22
2023-02-11T07:12:20.178Z,101000.16
2023-02-11T07:12:52.278Z,100982.25
2023-02-11T07:13:27.131Z,101004.75
2023-02-11T07:14:02.046Z,100992.94
2023-02-11T07:14:34.372Z,100991.13
2023-02-11T07:15:09.665Z,100994.44
2023-02-11T07:15:41.790Z,101000.19
2023-02-11T07:16:17.576Z,100989.41
2023-02-11T07:16:52.275Z,100992.69
2023-02-11T07:17:24.538Z,100993.34
2023-02-11T07:17:56.678Z,100991.34
2023-02-11T07:18:31.438Z,100988.50
2023-02-11T07:19:03.783Z,100992.63
2023-02-11T07:19:36.041Z,100981.84
2023-02-11T07:20:12.535Z,100977.81
2023-02-11T07:20:47.393Z,100987.88
2023-02-11T07:21:21.468Z,100981.38
2023-02-11T07:21:56.166Z,100980.19
2023-02-11T07:22:30.500Z,100989.81
2023-02-11T07:23:02.750Z,100994.09
2023-02-11T07:23:38.486Z,100994.91
2023-02-11T07:24:11.579Z,101000.06
2023-02-11T07:24:44.151Z,100990.28
2023-02-11T07:25:19.100Z,100997.22
2023-02-11T07:25:51.623Z,100998.22
2023-02-11T07:26:25.948Z,100997.41
2023-02-11T07:27:01.683Z,100993.09
2023-02-11T07:27:33.884Z,100987.78
2023-02-11T07:28:06.171Z,100984.97
2023-02-11T07:28:44.980Z,101000.72
2023-02-11T07:29:17.043Z,100989.44
2023-02-11T07:29:49.115Z,100996.41
2023-02-11T07:30:24.234Z,100993.75
2023-02-11T07:30:56.420Z,100998.22
2023-02-11T07:31:30.326Z,101011.50
2023-02-11T07:32:05.225Z,100989.44
2023-02-11T07:32:37.462Z,100993.09
2023-02-11T07:33:09.593Z,100998.41
2023-02-11T07:33:48.177Z,101002.69
2023-02-11T07:34:20.429Z,100990.28
2023-02-11T07:34:55.218Z,100994.56
2023-02-11T07:35:27.443Z,100993.53
2023-02-11T07:36:03.994Z,100994.91
2023-02-11T07:36:39.506Z,101004.69
2023-02-11T07:37:11.778Z,100996.94
2023-02-11T07:37:44.229Z,101004.53
2023-02-11T07:38:18.923Z,100993.09
2023-02-11T07:38:51.064Z,100991.44
2023-02-11T07:39:27.540Z,100982.47
2023-02-11T07:40:02.539Z,100977.56
2023-02-11T07:40:34.626Z,100978.28
2023-02-11T07:41:09.511Z,100979.56
2023-02-11T07:41:44.559Z,100974.25
2023-02-11T07:42:16.966Z,101012.03
2023-02-11T07:42:49.261Z,100995.13
2023-02-11T07:43:26.072Z,100991.44
2023-02-11T07:44:00.495Z,100989.81
2023-02-11T07:44:33.749Z,101000.44
2023-02-11T07:45:09.473Z,100982.84
2023-02-11T07:45:41.809Z,100984.50
2023-02-11T07:46:15.582Z,100983.69
2023-02-11T07:46:50.359Z,100976.34
2023-02-11T07:47:22.573Z,100984.31
2023-02-11T07:47:54.794Z,100981.66
2023-02-11T07:48:29.636Z,100978.38
2023-02-11T07:49:01.973Z,100985.34
2023-02-11T07:49:34.260Z,100973.25
2023-02-11T07:50:09.688Z,100965.13
2023-02-11T07:50:41.861Z,100977.19
2023-02-11T07:51:21.388Z,100959.59
2023-02-11T07:51:56.103Z,100971.03
2023-02-11T07:52:30.068Z,100961.25
2023-02-11T07:53:02.514Z,100964.56
2023-02-11T07:53:37.569Z,100959.72
2023-02-11T07:54:11.755Z,100954.25
2023-02-11T07:54:44.045Z,100953.03
2023-02-11T07:55:18.847Z,100958.78
2023-02-11T07:59:31.669Z,100937.03
2023-02-11T08:00:05.049Z,100934.03
2023-02-11T08:00:46.167Z,100940.78
2023-02-11T08:01:22.560Z,100934.25
2023-02-11T08:01:57.360Z,100925.28
2023-02-11T08:02:29.643Z,100936.56
2023-02-11T08:03:01.974Z,100924.56
2023-02-11T08:03:43.820Z,100924.38
2023-02-11T08:04:15.938Z,100934.81
2023-02-11T08:04:52.575Z,100932.78
2023-02-11T08:05:24.778Z,100929.13
2023-02-11T08:05:59.596Z,100924.47
2023-02-11T08:06:38.066Z,100926.09
2023-02-11T08:07:10.194Z,100926.09
2023-02-11T08:07:44.886Z,100920.59
2023-02-11T08:08:18.034Z,100932.03
2023-02-11T08:08:52.891Z,100924.72
2023-02-11T08:09:27.806Z,100921.25
2023-02-11T08:10:01.818Z,100929.84
2023-02-11T08:10:37.197Z,100919.25
2023-02-11T08:11:15.232Z,100922.34
2023-02-11T08:11:47.512Z,100928.47
2023-02-11T08:12:22.239Z,100934.59
2023-02-11T08:12:57.209Z,100944.41
2023-02-11T08:13:29.287Z,100932.13
2023-02-11T08:14:04.271Z,100929.19
2023-02-11T08:14:36.638Z,100928.56
2023-02-11T08:15:09.903Z,100926.09
2023-02-11T08:15:44.583Z,100926.09
2023-02-11T08:16:21.268Z,100924.28
2023-02-11T08:16:59.817Z,100922.25
2023-02-11T08:17:32.084Z,100913.28
2023-02-11T08:18:04.363Z,100919.25
2023-02-11T08:18:39.280Z,100917.19
2023-02-11T08:19:16.408Z,100920.50
2023-02-11T08:19:49.127Z,100918.47
2023-02-11T08:20:24.085Z,100928.47
2023-02-11T08:20:56.552Z,100928.47
2023-02-11T08:21:29.222Z,100916.19
2023-02-11T08:22:06.550Z,100921.50
2023-02-11T08:22:38.621Z,100909.25
2023-02-11T08:23:10.847Z,100907.22
2023-02-11T08:23:47.289Z,100915.63
2023-02-11T08:24:19.436Z,100914.81
2023-02-11T08:24:54.171Z,100908.13
2023-02-11T08:25:27.080Z,100904.28
2023-02-11T08:26:02.053Z,100903.91
2023-02-11T08:26:37.655Z,100900.84
2023-02-11T08:27:09.866Z,100909.47
2023-02-11T08:27:41.987Z,100903.34
2023-02-11T08:28:16.932Z,100905.78
2023-02-11T08:28:50.917Z,100904.97
2023-02-11T08:29:23.257Z,100913.56
2023-02-11T08:30:00.063Z,100908.06
2023-02-11T08:30:32.482Z,100905.41
2023-02-11T08:31:06.464Z,100908.06
2023-02-11T08:31:43.703Z,100907.88
2023-02-11T08:32:18.336Z,100909.91
2023-02-11T08:32:50.461Z,100910.72
2023-02-11T08:33:25.201Z,100910.53
2023-02-11T08:33:58.374Z,100912.81
2023-02-11T08:34:34.071Z,100904.84
2023-02-11T08:35:08.033Z,100915.28
2023-02-11T08:35:42.821Z,100907.50
2023-02-11T08:36:16.737Z,100913.66
2023-02-11T08:36:49.549Z,100910.16
2023-02-11T08:37:26.994Z,100917.31
2023-02-11T08:37:59.137Z,100928.09
2023-02-11T08:38:31.318Z,100917.03
2023-02-11T08:39:18.519Z,100917.44
2023-02-11T08:39:52.058Z,100909.00
2023-02-11T08:40:26.895Z,100915.13
2023-02-11T08:41:00.464Z,100907.81
2023-02-11T08:41:33.521Z,100904.97
2023-02-11T08:42:08.318Z,100901.28